sensor_id;sensor_type;location;lat;lon;timestamp;P1;durP1;ratioP1;P2;durP2;ratioP2
10645;SDS011;5371;49.782;9.932;2023-04-15T00:02:15;7.43;;;4.93;;
10645;SDS011;5371;49.782;9.932;2023-04-15T00:04:44;7.07;;;4.80;;
10645;SDS011;5371;49.782;9.932;2023-04-15T00:07:11;7.03;;;4.90;;
10645;SDS011;5371;49.782;9.932;2023-04-15T00:09:39;9.97;;;5.60;;
10645;SDS011;5371;49.782;9.932;2023-04-15T00:12:07;5.67;;;4.50;;
10645;SDS011;5371;49.782;9.932;2023-04-15T00:14:34;5.47;;;4.57;;
10645;SDS011;5371;49.782;9.932;2023-04-15T00:17:01;6.43;;;4.20;;
10645;SDS011;5371;49.782;9.932;2023-04-15T00:19:28;6.47;;;4.07;;
10645;SDS011;5371;49.782;9.932;2023-04-15T00:21:56;4.83;;;3.47;;
10645;SDS011;5371;49.782;9.932;2023-04-15T00:24:23;6.50;;;3.33;;
10645;SDS011;5371;49.782;9.932;2023-04-15T00:26:50;5.17;;;3.30;;
10645;SDS011;5371;49.782;9.932;2023-04-15T00:29:18;3.57;;;3.27;;
10645;SDS011;5371;49.782;9.932;2023-04-15T00:31:44;4.37;;;3.40;;
10645;SDS011;5371;49.782;9.932;2023-04-15T00:34:11;5.10;;;3.17;;
10645;SDS011;5371;49.782;9.932;2023-04-15T00:36:41;6.03;;;3.60;;
10645;SDS011;5371;49.782;9.932;2023-04-15T00:39:10;6.47;;;3.30;;
10645;SDS011;5371;49.782;9.932;2023-04-15T00:41:37;5.30;;;3.30;;
10645;SDS011;5371;49.782;9.932;2023-04-15T00:44:04;5.40;;;3.20;;
10645;SDS011;5371;49.782;9.932;2023-04-15T00:46:32;3.77;;;2.80;;
10645;SDS011;5371;49.782;9.932;2023-04-15T00:49:02;4.63;;;2.93;;
10645;SDS011;5371;49.782;9.932;2023-04-15T00:51:32;5.17;;;2.90;;
10645;SDS011;5371;49.782;9.932;2023-04-15T00:54:00;4.40;;;2.97;;
10645;SDS011;5371;49.782;9.932;2023-04-15T00:56:29;3.83;;;2.87;;
10645;SDS011;5371;49.782;9.932;2023-04-15T00:58:57;5.50;;;3.13;;
10645;SDS011;5371;49.782;9.932;2023-04-15T01:01:24;4.23;;;3.10;;
10645;SDS011;5371;49.782;9.932;2023-04-15T01:03:51;6.50;;;3.23;;
10645;SDS011;5371;49.782;9.932;2023-04-15T01:06:18;4.77;;;3.00;;
10645;SDS011;5371;49.782;9.932;2023-04-15T01:08:45;4.87;;;3.27;;
10645;SDS011;5371;49.782;9.932;2023-04-15T01:11:13;4.90;;;3.30;;
10645;SDS011;5371;49.782;9.932;2023-04-15T01:13:41;9.47;;;4.10;;
10645;SDS011;5371;49.782;9.932;2023-04-15T01:16:08;8.97;;;4.70;;
10645;SDS011;5371;49.782;9.932;2023-04-15T01:18:36;8.53;;;5.43;;
10645;SDS011;5371;49.782;9.932;2023-04-15T01:21:04;7.33;;;5.30;;
10645;SDS011;5371;49.782;9.932;2023-04-15T01:23:32;8.23;;;5.27;;
10645;SDS011;5371;49.782;9.932;2023-04-15T01:26:04;6.73;;;5.37;;
10645;SDS011;5371;49.782;9.932;2023-04-15T01:28:33;8.50;;;5.10;;
10645;SDS011;5371;49.782;9.932;2023-04-15T01:31:07;8.47;;;4.83;;
10645;SDS011;5371;49.782;9.932;2023-04-15T01:33:36;7.13;;;5.00;;
10645;SDS011;5371;49.782;9.932;2023-04-15T01:36:22;8.50;;;5.40;;
10645;SDS011;5371;49.782;9.932;2023-04-15T01:38:52;7.47;;;4.80;;
10645;SDS011;5371;49.782;9.932;2023-04-15T01:41:22;6.43;;;4.30;;
10645;SDS011;5371;49.782;9.932;2023-04-15T01:43:52;5.40;;;4.20;;
10645;SDS011;5371;49.782;9.932;2023-04-15T01:46:21;5.10;;;4.10;;
10645;SDS011;5371;49.782;9.932;2023-04-15T01:48:49;5.67;;;3.63;;
10645;SDS011;5371;49.782;9.932;2023-04-15T01:51:17;5.83;;;3.10;;
10645;SDS011;5371;49.782;9.932;2023-04-15T01:53:45;4.57;;;3.20;;
10645;SDS011;5371;49.782;9.932;2023-04-15T01:56:13;7.30;;;3.10;;
10645;SDS011;5371;49.782;9.932;2023-04-15T01:58:45;3.67;;;3.23;;
10645;SDS011;5371;49.782;9.932;2023-04-15T02:01:13;5.33;;;3.43;;
10645;SDS011;5371;49.782;9.932;2023-04-15T02:03:42;4.80;;;3.50;;
10645;SDS011;5371;49.782;9.932;2023-04-15T02:06:10;5.70;;;3.40;;
10645;SDS011;5371;49.782;9.932;2023-04-15T02:08:38;4.63;;;3.07;;
10645;SDS011;5371;49.782;9.932;2023-04-15T02:11:07;5.40;;;3.07;;
10645;SDS011;5371;49.782;9.932;2023-04-15T02:13:36;5.20;;;3.60;;
10645;SDS011;5371;49.782;9.932;2023-04-15T02:16:13;5.37;;;3.67;;
10645;SDS011;5371;49.782;9.932;2023-04-15T02:18:43;7.43;;;4.83;;
10645;SDS011;5371;49.782;9.932;2023-04-15T02:21:15;7.87;;;5.10;;
10645;SDS011;5371;49.782;9.932;2023-04-15T02:23:44;8.33;;;5.13;;
10645;SDS011;5371;49.782;9.932;2023-04-15T02:26:13;7.80;;;5.63;;
10645;SDS011;5371;49.782;9.932;2023-04-15T02:28:42;7.10;;;5.17;;
10645;SDS011;5371;49.782;9.932;2023-04-15T02:31:15;7.10;;;5.17;;
10645;SDS011;5371;49.782;9.932;2023-04-15T02:33:43;6.83;;;5.07;;
10645;SDS011;5371;49.782;9.932;2023-04-15T02:36:11;8.60;;;4.93;;
10645;SDS011;5371;49.782;9.932;2023-04-15T02:38:39;8.00;;;5.00;;
10645;SDS011;5371;49.782;9.932;2023-04-15T02:41:08;5.90;;;5.03;;
10645;SDS011;5371;49.782;9.932;2023-04-15T02:43:38;7.23;;;5.00;;
10645;SDS011;5371;49.782;9.932;2023-04-15T02:46:06;6.77;;;5.13;;
10645;SDS011;5371;49.782;9.932;2023-04-15T02:48:35;6.40;;;5.03;;
10645;SDS011;5371;49.782;9.932;2023-04-15T02:51:10;8.83;;;5.57;;
10645;SDS011;5371;49.782;9.932;2023-04-15T02:53:39;6.30;;;4.83;;
10645;SDS011;5371;49.782;9.932;2023-04-15T02:56:07;6.97;;;5.07;;
10645;SDS011;5371;49.782;9.932;2023-04-15T02:58:36;7.90;;;5.00;;
10645;SDS011;5371;49.782;9.932;2023-04-15T03:01:05;8.13;;;5.63;;
10645;SDS011;5371;49.782;9.932;2023-04-15T03:03:35;8.77;;;5.63;;
10645;SDS011;5371;49.782;9.932;2023-04-15T03:06:04;9.03;;;5.20;;
10645;SDS011;5371;49.782;9.932;2023-04-15T03:08:32;7.63;;;5.30;;
10645;SDS011;5371;49.782;9.932;2023-04-15T03:11:00;7.57;;;5.27;;
10645;SDS011;5371;49.782;9.932;2023-04-15T03:13:28;7.70;;;5.27;;
10645;SDS011;5371;49.782;9.932;2023-04-15T03:15:58;8.10;;;4.83;;
10645;SDS011;5371;49.782;9.932;2023-04-15T03:18:27;5.93;;;5.13;;
10645;SDS011;5371;49.782;9.932;2023-04-15T03:20:58;5.63;;;4.77;;
10645;SDS011;5371;49.782;9.932;2023-04-15T03:23:26;6.83;;;5.37;;
10645;SDS011;5371;49.782;9.932;2023-04-15T03:25:56;8.23;;;5.43;;
10645;SDS011;5371;49.782;9.932;2023-04-15T03:28:28;6.63;;;5.37;;
10645;SDS011;5371;49.782;9.932;2023-04-15T03:30:57;7.17;;;5.33;;
10645;SDS011;5371;49.782;9.932;2023-04-15T03:33:25;10.10;;;5.70;;
10645;SDS011;5371;49.782;9.932;2023-04-15T03:35:53;9.03;;;5.70;;
10645;SDS011;5371;49.782;9.932;2023-04-15T03:38:22;10.77;;;5.30;;
10645;SDS011;5371;49.782;9.932;2023-04-15T03:40:51;8.07;;;5.90;;
10645;SDS011;5371;49.782;9.932;2023-04-15T03:43:19;6.43;;;5.13;;
10645;SDS011;5371;49.782;9.932;2023-04-15T03:45:47;8.33;;;5.93;;
10645;SDS011;5371;49.782;9.932;2023-04-15T03:48:15;8.17;;;5.70;;
10645;SDS011;5371;49.782;9.932;2023-04-15T03:50:44;8.57;;;5.80;;
10645;SDS011;5371;49.782;9.932;2023-04-15T03:53:12;8.80;;;5.50;;
10645;SDS011;5371;49.782;9.932;2023-04-15T03:55:42;9.80;;;5.93;;
10645;SDS011;5371;49.782;9.932;2023-04-15T03:58:11;8.20;;;5.50;;
10645;SDS011;5371;49.782;9.932;2023-04-15T04:00:39;9.80;;;6.03;;
10645;SDS011;5371;49.782;9.932;2023-04-15T04:03:08;6.63;;;5.60;;
10645;SDS011;5371;49.782;9.932;2023-04-15T04:05:36;5.93;;;5.20;;
10645;SDS011;5371;49.782;9.932;2023-04-15T04:08:06;8.43;;;5.60;;
10645;SDS011;5371;49.782;9.932;2023-04-15T04:10:35;10.37;;;5.37;;
10645;SDS011;5371;49.782;9.932;2023-04-15T04:13:04;9.57;;;5.60;;
10645;SDS011;5371;49.782;9.932;2023-04-15T04:15:32;6.90;;;5.40;;
10645;SDS011;5371;49.782;9.932;2023-04-15T04:18:00;8.53;;;5.37;;
10645;SDS011;5371;49.782;9.932;2023-04-15T04:20:29;7.23;;;5.97;;
10645;SDS011;5371;49.782;9.932;2023-04-15T04:22:58;8.87;;;5.77;;
10645;SDS011;5371;49.782;9.932;2023-04-15T04:25:26;8.37;;;5.83;;
10645;SDS011;5371;49.782;9.932;2023-04-15T04:27:54;7.90;;;5.63;;
10645;SDS011;5371;49.782;9.932;2023-04-15T04:30:23;8.60;;;5.80;;
10645;SDS011;5371;49.782;9.932;2023-04-15T04:32:51;8.93;;;5.30;;
10645;SDS011;5371;49.782;9.932;2023-04-15T04:35:20;7.43;;;5.90;;
10645;SDS011;5371;49.782;9.932;2023-04-15T04:37:48;8.67;;;5.73;;
10645;SDS011;5371;49.782;9.932;2023-04-15T04:40:16;9.50;;;5.23;;
10645;SDS011;5371;49.782;9.932;2023-04-15T04:42:44;10.03;;;5.73;;
10645;SDS011;5371;49.782;9.932;2023-04-15T04:45:12;6.13;;;5.20;;
10645;SDS011;5371;49.782;9.932;2023-04-15T04:47:42;6.47;;;5.63;;
10645;SDS011;5371;49.782;9.932;2023-04-15T04:50:10;6.67;;;5.23;;
10645;SDS011;5371;49.782;9.932;2023-04-15T04:52:38;9.23;;;5.67;;
10645;SDS011;5371;49.782;9.932;2023-04-15T04:55:06;6.27;;;5.20;;
10645;SDS011;5371;49.782;9.932;2023-04-15T04:57:35;7.57;;;5.30;;
10645;SDS011;5371;49.782;9.932;2023-04-15T05:00:03;6.50;;;4.80;;
10645;SDS011;5371;49.782;9.932;2023-04-15T05:02:33;5.07;;;4.37;;
10645;SDS011;5371;49.782;9.932;2023-04-15T05:05:03;7.60;;;4.60;;
10645;SDS011;5371;49.782;9.932;2023-04-15T05:07:32;7.87;;;4.87;;
10645;SDS011;5371;49.782;9.932;2023-04-15T05:10:01;6.10;;;5.07;;
10645;SDS011;5371;49.782;9.932;2023-04-15T05:12:29;6.87;;;4.90;;
10645;SDS011;5371;49.782;9.932;2023-04-15T05:14:57;7.87;;;5.00;;
10645;SDS011;5371;49.782;9.932;2023-04-15T05:17:26;6.97;;;5.23;;
10645;SDS011;5371;49.782;9.932;2023-04-15T05:19:56;8.50;;;5.60;;
10645;SDS011;5371;49.782;9.932;2023-04-15T05:22:26;8.70;;;5.17;;
10645;SDS011;5371;49.782;9.932;2023-04-15T05:24:54;6.27;;;4.80;;
10645;SDS011;5371;49.782;9.932;2023-04-15T05:27:22;6.30;;;4.83;;
10645;SDS011;5371;49.782;9.932;2023-04-15T05:29:51;5.77;;;4.43;;
10645;SDS011;5371;49.782;9.932;2023-04-15T05:32:19;7.13;;;4.70;;
10645;SDS011;5371;49.782;9.932;2023-04-15T05:34:47;8.10;;;5.13;;
10645;SDS011;5371;49.782;9.932;2023-04-15T05:37:15;8.13;;;5.10;;
10645;SDS011;5371;49.782;9.932;2023-04-15T05:39:44;6.37;;;4.87;;
10645;SDS011;5371;49.782;9.932;2023-04-15T05:42:13;6.63;;;4.60;;
10645;SDS011;5371;49.782;9.932;2023-04-15T05:44:42;6.33;;;4.60;;
10645;SDS011;5371;49.782;9.932;2023-04-15T05:47:10;7.47;;;5.07;;
10645;SDS011;5371;49.782;9.932;2023-04-15T05:49:38;7.27;;;4.77;;
10645;SDS011;5371;49.782;9.932;2023-04-15T05:52:07;5.80;;;5.10;;
10645;SDS011;5371;49.782;9.932;2023-04-15T05:54:35;5.93;;;4.57;;
10645;SDS011;5371;49.782;9.932;2023-04-15T05:57:04;8.57;;;4.87;;
10645;SDS011;5371;49.782;9.932;2023-04-15T05:59:33;6.23;;;4.90;;
10645;SDS011;5371;49.782;9.932;2023-04-15T06:02:01;7.60;;;4.90;;
10645;SDS011;5371;49.782;9.932;2023-04-15T06:04:29;5.17;;;4.40;;
10645;SDS011;5371;49.782;9.932;2023-04-15T06:06:58;10.00;;;4.87;;
10645;SDS011;5371;49.782;9.932;2023-04-15T06:09:26;8.27;;;5.43;;
10645;SDS011;5371;49.782;9.932;2023-04-15T06:11:54;6.60;;;4.57;;
10645;SDS011;5371;49.782;9.932;2023-04-15T06:14:24;9.03;;;5.23;;
10645;SDS011;5371;49.782;9.932;2023-04-15T06:16:52;5.30;;;4.73;;
10645;SDS011;5371;49.782;9.932;2023-04-15T06:19:21;6.07;;;5.03;;
10645;SDS011;5371;49.782;9.932;2023-04-15T06:21:49;7.43;;;4.80;;
10645;SDS011;5371;49.782;9.932;2023-04-15T06:24:17;5.13;;;4.30;;
10645;SDS011;5371;49.782;9.932;2023-04-15T06:26:45;6.20;;;4.63;;
10645;SDS011;5371;49.782;9.932;2023-04-15T06:29:13;7.23;;;5.40;;
10645;SDS011;5371;49.782;9.932;2023-04-15T06:31:43;7.17;;;4.60;;
10645;SDS011;5371;49.782;9.932;2023-04-15T06:34:11;6.30;;;4.87;;
10645;SDS011;5371;49.782;9.932;2023-04-15T06:36:39;6.60;;;4.37;;
10645;SDS011;5371;49.782;9.932;2023-04-15T06:39:07;6.80;;;4.60;;
10645;SDS011;5371;49.782;9.932;2023-04-15T06:41:36;5.70;;;4.57;;
10645;SDS011;5371;49.782;9.932;2023-04-15T06:44:04;4.57;;;4.03;;
10645;SDS011;5371;49.782;9.932;2023-04-15T06:46:32;5.43;;;4.30;;
10645;SDS011;5371;49.782;9.932;2023-04-15T06:49:02;5.53;;;4.40;;
10645;SDS011;5371;49.782;9.932;2023-04-15T06:51:31;7.93;;;4.63;;
10645;SDS011;5371;49.782;9.932;2023-04-15T06:53:59;7.40;;;4.70;;
10645;SDS011;5371;49.782;9.932;2023-04-15T06:56:28;5.70;;;4.67;;
10645;SDS011;5371;49.782;9.932;2023-04-15T06:58:56;6.37;;;4.90;;
10645;SDS011;5371;49.782;9.932;2023-04-15T07:01:24;6.03;;;4.33;;
10645;SDS011;5371;49.782;9.932;2023-04-15T07:03:53;7.97;;;4.60;;
10645;SDS011;5371;49.782;9.932;2023-04-15T07:06:23;5.80;;;4.50;;
10645;SDS011;5371;49.782;9.932;2023-04-15T07:08:51;5.67;;;4.37;;
10645;SDS011;5371;49.782;9.932;2023-04-15T07:11:19;7.30;;;5.40;;
10645;SDS011;5371;49.782;9.932;2023-04-15T07:13:47;5.90;;;4.30;;
10645;SDS011;5371;49.782;9.932;2023-04-15T07:16:16;5.80;;;4.30;;
10645;SDS011;5371;49.782;9.932;2023-04-15T07:18:44;6.93;;;4.43;;
10645;SDS011;5371;49.782;9.932;2023-04-15T07:21:12;7.10;;;4.37;;
10645;SDS011;5371;49.782;9.932;2023-04-15T07:23:41;7.03;;;4.23;;
10645;SDS011;5371;49.782;9.932;2023-04-15T07:26:10;6.67;;;4.27;;
10645;SDS011;5371;49.782;9.932;2023-04-15T07:28:38;6.63;;;4.60;;
10645;SDS011;5371;49.782;9.932;2023-04-15T07:31:07;7.70;;;4.93;;
10645;SDS011;5371;49.782;9.932;2023-04-15T07:33:35;7.30;;;4.72;;
10645;SDS011;5371;49.782;9.932;2023-04-15T07:36:03;5.03;;;4.30;;
10645;SDS011;5371;49.782;9.932;2023-04-15T07:38:32;5.47;;;4.40;;
10645;SDS011;5371;49.782;9.932;2023-04-15T07:41:01;6.78;;;5.20;;
10645;SDS011;5371;49.782;9.932;2023-04-15T07:43:30;6.53;;;4.83;;
10645;SDS011;5371;49.782;9.932;2023-04-15T07:45:58;6.22;;;4.72;;
10645;SDS011;5371;49.782;9.932;2023-04-15T07:48:27;6.47;;;4.90;;
10645;SDS011;5371;49.782;9.932;2023-04-15T07:50:55;7.87;;;5.07;;
10645;SDS011;5371;49.782;9.932;2023-04-15T07:53:23;7.10;;;5.00;;
10645;SDS011;5371;49.782;9.932;2023-04-15T07:55:52;7.50;;;5.05;;
10645;SDS011;5371;49.782;9.932;2023-04-15T07:58:21;6.80;;;4.63;;
10645;SDS011;5371;49.782;9.932;2023-04-15T08:00:50;6.65;;;5.18;;
10645;SDS011;5371;49.782;9.932;2023-04-15T08:03:18;7.05;;;5.55;;
10645;SDS011;5371;49.782;9.932;2023-04-15T08:05:47;7.78;;;5.30;;
10645;SDS011;5371;49.782;9.932;2023-04-15T08:08:15;9.10;;;5.65;;
10645;SDS011;5371;49.782;9.932;2023-04-15T08:10:43;6.45;;;5.28;;
10645;SDS011;5371;49.782;9.932;2023-04-15T08:13:13;6.55;;;5.13;;
10645;SDS011;5371;49.782;9.932;2023-04-15T08:15:43;7.43;;;5.20;;
10645;SDS011;5371;49.782;9.932;2023-04-15T08:18:11;6.65;;;5.13;;
10645;SDS011;5371;49.782;9.932;2023-04-15T08:20:39;7.13;;;5.63;;
10645;SDS011;5371;49.782;9.932;2023-04-15T08:23:08;7.65;;;4.68;;
10645;SDS011;5371;49.782;9.932;2023-04-15T08:25:36;5.78;;;5.05;;
10645;SDS011;5371;49.782;9.932;2023-04-15T08:28:04;4.80;;;4.35;;
10645;SDS011;5371;49.782;9.932;2023-04-15T08:30:33;5.70;;;4.13;;
10645;SDS011;5371;49.782;9.932;2023-04-15T08:33:03;5.25;;;4.10;;
10645;SDS011;5371;49.782;9.932;2023-04-15T08:35:31;5.20;;;4.28;;
10645;SDS011;5371;49.782;9.932;2023-04-15T08:38:00;6.30;;;4.47;;
10645;SDS011;5371;49.782;9.932;2023-04-15T08:40:29;4.88;;;4.38;;
10645;SDS011;5371;49.782;9.932;2023-04-15T08:43:10;4.38;;;3.85;;
10645;SDS011;5371;49.782;9.932;2023-04-15T08:45:40;4.63;;;3.90;;
10645;SDS011;5371;49.782;9.932;2023-04-15T08:48:10;4.50;;;4.10;;
10645;SDS011;5371;49.782;9.932;2023-04-15T08:50:42;5.20;;;4.10;;
10645;SDS011;5371;49.782;9.932;2023-04-15T08:53:10;5.72;;;4.20;;
10645;SDS011;5371;49.782;9.932;2023-04-15T08:55:41;4.72;;;4.18;;
10645;SDS011;5371;49.782;9.932;2023-04-15T08:58:11;4.70;;;4.00;;
10645;SDS011;5371;49.782;9.932;2023-04-15T09:00:40;4.90;;;4.20;;
10645;SDS011;5371;49.782;9.932;2023-04-15T09:03:10;4.20;;;3.80;;
10645;SDS011;5371;49.782;9.932;2023-04-15T09:05:38;5.70;;;3.78;;
10645;SDS011;5371;49.782;9.932;2023-04-15T09:08:06;4.60;;;4.00;;
10645;SDS011;5371;49.782;9.932;2023-04-15T09:10:34;5.03;;;4.25;;
10645;SDS011;5371;49.782;9.932;2023-04-15T09:13:03;4.55;;;4.00;;
10645;SDS011;5371;49.782;9.932;2023-04-15T09:15:32;5.38;;;3.60;;
10645;SDS011;5371;49.782;9.932;2023-04-15T09:18:00;5.13;;;3.70;;
10645;SDS011;5371;49.782;9.932;2023-04-15T09:20:29;4.43;;;3.90;;
10645;SDS011;5371;49.782;9.932;2023-04-15T09:22:58;5.07;;;3.80;;
10645;SDS011;5371;49.782;9.932;2023-04-15T09:25:29;4.60;;;3.60;;
10645;SDS011;5371;49.782;9.932;2023-04-15T09:27:58;4.07;;;3.17;;
10645;SDS011;5371;49.782;9.932;2023-04-15T09:30:27;3.50;;;2.90;;
10645;SDS011;5371;49.782;9.932;2023-04-15T09:32:56;4.00;;;2.87;;
10645;SDS011;5371;49.782;9.932;2023-04-15T09:35:25;3.03;;;2.73;;
10645;SDS011;5371;49.782;9.932;2023-04-15T09:38:00;4.27;;;2.40;;
10645;SDS011;5371;49.782;9.932;2023-04-15T09:40:30;5.17;;;2.90;;
10645;SDS011;5371;49.782;9.932;2023-04-15T09:42:59;4.63;;;3.00;;
10645;SDS011;5371;49.782;9.932;2023-04-15T09:45:28;4.00;;;3.10;;
10645;SDS011;5371;49.782;9.932;2023-04-15T09:47:56;4.70;;;3.20;;
10645;SDS011;5371;49.782;9.932;2023-04-15T09:50:26;4.20;;;3.00;;
10645;SDS011;5371;49.782;9.932;2023-04-15T09:52:56;2.70;;;2.40;;
10645;SDS011;5371;49.782;9.932;2023-04-15T09:55:25;3.47;;;2.33;;
10645;SDS011;5371;49.782;9.932;2023-04-15T09:57:53;5.07;;;2.80;;
10645;SDS011;5371;49.782;9.932;2023-04-15T10:00:21;4.13;;;2.57;;
10645;SDS011;5371;49.782;9.932;2023-04-15T10:02:49;2.67;;;2.27;;
10645;SDS011;5371;49.782;9.932;2023-04-15T10:05:17;3.60;;;2.20;;
10645;SDS011;5371;49.782;9.932;2023-04-15T10:07:46;2.60;;;2.30;;
10645;SDS011;5371;49.782;9.932;2023-04-15T10:10:15;3.17;;;2.70;;
10645;SDS011;5371;49.782;9.932;2023-04-15T10:12:44;3.50;;;2.90;;
10645;SDS011;5371;49.782;9.932;2023-04-15T10:15:14;3.10;;;2.50;;
10645;SDS011;5371;49.782;9.932;2023-04-15T10:17:43;3.47;;;2.45;;
10645;SDS011;5371;49.782;9.932;2023-04-15T10:20:12;3.03;;;2.40;;
10645;SDS011;5371;49.782;9.932;2023-04-15T10:22:40;3.70;;;2.20;;
10645;SDS011;5371;49.782;9.932;2023-04-15T10:25:09;2.30;;;2.10;;
10645;SDS011;5371;49.782;9.932;2023-04-15T10:27:39;2.70;;;2.20;;
10645;SDS011;5371;49.782;9.932;2023-04-15T10:30:08;2.83;;;1.90;;
10645;SDS011;5371;49.782;9.932;2023-04-15T10:32:37;4.40;;;1.80;;
10645;SDS011;5371;49.782;9.932;2023-04-15T10:35:06;2.00;;;1.50;;
10645;SDS011;5371;49.782;9.932;2023-04-15T10:37:36;2.67;;;1.70;;
10645;SDS011;5371;49.782;9.932;2023-04-15T10:42:53;3.63;;;2.15;;
10645;SDS011;5371;49.782;9.932;2023-04-15T10:45:24;2.20;;;1.90;;
10645;SDS011;5371;49.782;9.932;2023-04-15T10:47:54;1.93;;;1.77;;
10645;SDS011;5371;49.782;9.932;2023-04-15T10:50:24;2.43;;;1.90;;
10645;SDS011;5371;49.782;9.932;2023-04-15T10:52:54;3.55;;;2.28;;
10645;SDS011;5371;49.782;9.932;2023-04-15T10:55:23;2.60;;;2.00;;
10645;SDS011;5371;49.782;9.932;2023-04-15T10:57:53;2.70;;;2.08;;
10645;SDS011;5371;49.782;9.932;2023-04-15T11:00:23;2.53;;;1.90;;
10645;SDS011;5371;49.782;9.932;2023-04-15T11:02:53;3.40;;;1.80;;
10645;SDS011;5371;49.782;9.932;2023-04-15T11:05:22;2.90;;;1.50;;
10645;SDS011;5371;49.782;9.932;2023-04-15T11:08:19;2.33;;;1.50;;
10645;SDS011;5371;49.782;9.932;2023-04-15T11:10:51;2.23;;;1.40;;
10645;SDS011;5371;49.782;9.932;2023-04-15T11:13:22;1.30;;;1.10;;
10645;SDS011;5371;49.782;9.932;2023-04-15T11:15:57;1.10;;;1.00;;
10645;SDS011;5371;49.782;9.932;2023-04-15T11:18:28;2.70;;;1.30;;
10645;SDS011;5371;49.782;9.932;2023-04-15T11:21:00;3.27;;;1.40;;
10645;SDS011;5371;49.782;9.932;2023-04-15T11:23:31;3.10;;;1.40;;
10645;SDS011;5371;49.782;9.932;2023-04-15T11:26:03;2.67;;;1.50;;
10645;SDS011;5371;49.782;9.932;2023-04-15T11:28:36;3.17;;;1.50;;
10645;SDS011;5371;49.782;9.932;2023-04-15T11:31:06;1.63;;;1.50;;
10645;SDS011;5371;49.782;9.932;2023-04-15T11:33:37;1.70;;;1.37;;
10645;SDS011;5371;49.782;9.932;2023-04-15T11:36:11;2.23;;;1.30;;
10645;SDS011;5371;49.782;9.932;2023-04-15T11:38:41;1.80;;;1.40;;
10645;SDS011;5371;49.782;9.932;2023-04-15T11:41:13;1.50;;;1.40;;
10645;SDS011;5371;49.782;9.932;2023-04-15T11:43:43;1.70;;;1.50;;
10645;SDS011;5371;49.782;9.932;2023-04-15T11:46:11;1.67;;;1.57;;
10645;SDS011;5371;49.782;9.932;2023-04-15T11:48:41;2.13;;;1.50;;
10645;SDS011;5371;49.782;9.932;2023-04-15T11:51:10;4.00;;;1.70;;
10645;SDS011;5371;49.782;9.932;2023-04-15T11:53:39;1.67;;;1.57;;
10645;SDS011;5371;49.782;9.932;2023-04-15T11:56:07;1.90;;;1.67;;
10645;SDS011;5371;49.782;9.932;2023-04-15T11:58:35;1.73;;;1.60;;
10645;SDS011;5371;49.782;9.932;2023-04-15T12:01:05;2.00;;;1.80;;
10645;SDS011;5371;49.782;9.932;2023-04-15T12:03:35;2.47;;;1.90;;
10645;SDS011;5371;49.782;9.932;2023-04-15T12:06:07;2.23;;;1.90;;
10645;SDS011;5371;49.782;9.932;2023-04-15T12:08:54;2.67;;;1.97;;
10645;SDS011;5371;49.782;9.932;2023-04-15T12:11:27;2.93;;;2.00;;
10645;SDS011;5371;49.782;9.932;2023-04-15T12:14:02;4.20;;;2.27;;
10645;SDS011;5371;49.782;9.932;2023-04-15T12:16:32;2.53;;;2.00;;
10645;SDS011;5371;49.782;9.932;2023-04-15T12:18:59;2.20;;;2.00;;
10645;SDS011;5371;49.782;9.932;2023-04-15T12:21:32;3.50;;;2.10;;
10645;SDS011;5371;49.782;9.932;2023-04-15T12:24:01;2.83;;;1.93;;
10645;SDS011;5371;49.782;9.932;2023-04-15T12:26:31;2.10;;;1.90;;
10645;SDS011;5371;49.782;9.932;2023-04-15T12:29:00;2.40;;;2.10;;
10645;SDS011;5371;49.782;9.932;2023-04-15T12:31:27;2.53;;;2.10;;
10645;SDS011;5371;49.782;9.932;2023-04-15T12:33:56;2.20;;;2.00;;
10645;SDS011;5371;49.782;9.932;2023-04-15T12:36:23;3.30;;;1.90;;
10645;SDS011;5371;49.782;9.932;2023-04-15T12:38:50;2.20;;;2.00;;
10645;SDS011;5371;49.782;9.932;2023-04-15T12:41:18;2.37;;;2.00;;
10645;SDS011;5371;49.782;9.932;2023-04-15T12:43:45;2.23;;;2.03;;
10645;SDS011;5371;49.782;9.932;2023-04-15T12:46:12;2.73;;;2.00;;
10645;SDS011;5371;49.782;9.932;2023-04-15T12:48:40;2.27;;;2.07;;
10645;SDS011;5371;49.782;9.932;2023-04-15T12:51:08;2.33;;;2.13;;
10645;SDS011;5371;49.782;9.932;2023-04-15T12:53:35;3.20;;;2.10;;
10645;SDS011;5371;49.782;9.932;2023-04-15T12:56:02;6.33;;;2.00;;
10645;SDS011;5371;49.782;9.932;2023-04-15T12:58:29;2.30;;;2.07;;
10645;SDS011;5371;49.782;9.932;2023-04-15T13:00:56;2.30;;;1.93;;
10645;SDS011;5371;49.782;9.932;2023-04-15T13:03:23;2.93;;;2.03;;
10645;SDS011;5371;49.782;9.932;2023-04-15T13:05:50;3.23;;;1.80;;
10645;SDS011;5371;49.782;9.932;2023-04-15T13:08:18;2.40;;;2.00;;
10645;SDS011;5371;49.782;9.932;2023-04-15T13:10:45;2.23;;;1.90;;
10645;SDS011;5371;49.782;9.932;2023-04-15T13:13:14;2.90;;;1.70;;
10645;SDS011;5371;49.782;9.932;2023-04-15T13:15:41;2.47;;;2.17;;
10645;SDS011;5371;49.782;9.932;2023-04-15T13:18:10;3.20;;;2.70;;
10645;SDS011;5371;49.782;9.932;2023-04-15T13:20:37;3.30;;;2.23;;
10645;SDS011;5371;49.782;9.932;2023-04-15T13:23:04;2.03;;;1.83;;
10645;SDS011;5371;49.782;9.932;2023-04-15T13:25:32;2.43;;;2.00;;
10645;SDS011;5371;49.782;9.932;2023-04-15T13:27:59;2.45;;;1.80;;
10645;SDS011;5371;49.782;9.932;2023-04-15T13:30:26;1.93;;;1.80;;
10645;SDS011;5371;49.782;9.932;2023-04-15T13:32:53;2.35;;;1.90;;
10645;SDS011;5371;49.782;9.932;2023-04-15T13:35:20;2.25;;;1.73;;
10645;SDS011;5371;49.782;9.932;2023-04-15T13:37:47;1.80;;;1.70;;
10645;SDS011;5371;49.782;9.932;2023-04-15T13:40:14;2.03;;;1.83;;
10645;SDS011;5371;49.782;9.932;2023-04-15T13:42:43;1.45;;;1.30;;
10645;SDS011;5371;49.782;9.932;2023-04-15T13:45:10;2.40;;;1.60;;
10645;SDS011;5371;49.782;9.932;2023-04-15T13:47:37;1.80;;;1.60;;
10645;SDS011;5371;49.782;9.932;2023-04-15T13:50:04;1.40;;;1.30;;
10645;SDS011;5371;49.782;9.932;2023-04-15T13:52:32;1.77;;;1.50;;
10645;SDS011;5371;49.782;9.932;2023-04-15T13:54:59;2.03;;;1.40;;
10645;SDS011;5371;49.782;9.932;2023-04-15T13:57:25;1.60;;;1.50;;
10645;SDS011;5371;49.782;9.932;2023-04-15T13:59:54;1.65;;;1.55;;
10645;SDS011;5371;49.782;9.932;2023-04-15T14:02:21;3.87;;;1.67;;
10645;SDS011;5371;49.782;9.932;2023-04-15T14:04:48;1.95;;;1.52;;
10645;SDS011;5371;49.782;9.932;2023-04-15T14:07:15;2.10;;;1.70;;
10645;SDS011;5371;49.782;9.932;2023-04-15T14:09:42;2.70;;;1.80;;
10645;SDS011;5371;49.782;9.932;2023-04-15T14:12:09;1.73;;;1.63;;
10645;SDS011;5371;49.782;9.932;2023-04-15T14:14:36;2.40;;;2.07;;
10645;SDS011;5371;49.782;9.932;2023-04-15T14:17:04;2.00;;;1.80;;
10645;SDS011;5371;49.782;9.932;2023-04-15T14:19:31;2.40;;;2.20;;
10645;SDS011;5371;49.782;9.932;2023-04-15T14:21:59;3.30;;;2.00;;
10645;SDS011;5371;49.782;9.932;2023-04-15T14:24:26;1.92;;;1.80;;
10645;SDS011;5371;49.782;9.932;2023-04-15T14:26:53;2.23;;;2.00;;
10645;SDS011;5371;49.782;9.932;2023-04-15T14:29:21;2.17;;;1.70;;
10645;SDS011;5371;49.782;9.932;2023-04-15T14:31:48;2.07;;;1.80;;
10645;SDS011;5371;49.782;9.932;2023-04-15T14:34:16;2.03;;;1.70;;
10645;SDS011;5371;49.782;9.932;2023-04-15T14:36:43;1.83;;;1.70;;
10645;SDS011;5371;49.782;9.932;2023-04-15T14:39:10;1.80;;;1.60;;
10645;SDS011;5371;49.782;9.932;2023-04-15T14:41:37;4.00;;;2.70;;
10645;SDS011;5371;49.782;9.932;2023-04-15T14:44:04;2.40;;;2.17;;
10645;SDS011;5371;49.782;9.932;2023-04-15T14:46:33;2.00;;;1.80;;
10645;SDS011;5371;49.782;9.932;2023-04-15T14:49:00;2.10;;;1.70;;
10645;SDS011;5371;49.782;9.932;2023-04-15T14:51:29;2.73;;;1.77;;
10645;SDS011;5371;49.782;9.932;2023-04-15T14:53:56;3.23;;;1.90;;
10645;SDS011;5371;49.782;9.932;2023-04-15T14:56:23;2.07;;;1.80;;
10645;SDS011;5371;49.782;9.932;2023-04-15T14:58:50;2.00;;;1.80;;
10645;SDS011;5371;49.782;9.932;2023-04-15T15:01:18;2.20;;;2.00;;
10645;SDS011;5371;49.782;9.932;2023-04-15T15:03:45;3.20;;;2.50;;
10645;SDS011;5371;49.782;9.932;2023-04-15T15:06:12;2.77;;;2.10;;
10645;SDS011;5371;49.782;9.932;2023-04-15T15:08:41;2.37;;;2.07;;
10645;SDS011;5371;49.782;9.932;2023-04-15T15:11:08;2.70;;;2.50;;
10645;SDS011;5371;49.782;9.932;2023-04-15T15:13:35;2.87;;;2.20;;